Flight Track Log - Related Links

Times and Time Zones

All times are in EDT time to prevent confusion due to time zone crossing. See the UAL4336 flight status page for this flight to view local times or setup timezone preferences in your user account.

Time Position Orientation Groundspeed Altitude Reporting Facility
EDT Latitude Longitude Course Direction KTS MPH feet Rate Location/Type
Tue 06:17:23 AM 40.0014 -82.8639 270° West 161 185 1,500  Level Indianapolis Center
Tue 06:17:48 AM 40.0011 -82.8392 91° East 178 205 2,200 1,537 Climbing Indianapolis Center
Tue 06:18:45 AM 40.0053 -82.7661 86° East 221 254 3,600 1,897 Climbing Indianapolis Center
Tue 06:19:45 AM 40.0478 -82.7128 44° Northeast 241 277 5,900 1,934 Climbing Indianapolis Center
Tue 06:20:00 AM 40.0000 -83.2711 270° West  Level FlightAware Approximate
Tue 06:20:46 AM 40.0650 -82.7822 288° West 210 242 7,500  Level Indianapolis Center
Tue 06:21:00 AM 40.0000 -83.4011 270° West  Level FlightAware Approximate
Tue 06:21:46 AM 40.0747 -82.8703 278° West 233 268 9,500  Level Indianapolis Center
Tue 06:22:00 AM 40.0000 -83.5312 270° West  Level FlightAware Approximate
Tue 06:22:47 AM 40.0842 -82.9656 277° West 259 298 10,000  Level Indianapolis Center
Tue 06:23:48 AM 40.0956 -83.0750 278° West 302 348 11,400 1,451 Climbing Indianapolis Center
Tue 06:25:00 AM 40.0478 -83.2233 247° West  Level FlightAware Approximate
Tue 06:25:49 AM 40.0667 -83.2836 247° West 303 349 14,400  Level Indianapolis Center
Tue 06:26:50 AM 40.0231 -83.3803 240° Southwest 307 353 15,800 1,438 Climbing Indianapolis Center
Tue 06:27:50 AM 39.9806 -83.4764 240° Southwest 307 353 17,300 1,388 Climbing Indianapolis Center
Tue 06:28:51 AM 39.9378 -83.5719 240° Southwest 308 354 18,600 1,377 Climbing Indianapolis Center
Tue 06:29:52 AM 39.8944 -83.6678 240° Southwest 309 356 20,100 1,488 Climbing Indianapolis Center
Tue 06:30:52 AM 39.8511 -83.7658 240° Southwest 312 359 21,600 1,438 Climbing Indianapolis Center
Tue 06:31:53 AM 39.7989 -83.8797 239° Southwest 314 361 23,000 1,230 Climbing Indianapolis Center
Tue 06:32:54 AM 39.7533 -83.9806 240° Southwest 321 369 24,100 1,140 Climbing Indianapolis Center
Tue 06:33:54 AM 39.7069 -84.0814 239° Southwest 324 373 25,300 1,190 Climbing Indianapolis Center
Tue 06:34:55 AM 39.6603 -84.1836 239° Southwest 326 375 26,500 1,131 Climbing Indianapolis Center
Tue 06:35:56 AM 39.6139 -84.2850 239° Southwest 325 374 27,600 1,140 Climbing Indianapolis Center
Tue 06:36:56 AM 39.5681 -84.3844 239° Southwest 322 371 28,800 992 Climbing Indianapolis Center
Tue 06:37:57 AM 39.5211 -84.4869 239° Southwest 325 374 29,600 738 Climbing Indianapolis Center
Tue 06:38:58 AM 39.4728 -84.5925 239° Southwest 335 386 30,300 744 Climbing Indianapolis Center
Tue 06:39:58 AM 39.4214 -84.7003 238° Southwest 346 398 31,100 793 Climbing Indianapolis Center
Tue 06:40:59 AM 39.3700 -84.8103 239° Southwest 353 406 31,900 787 Climbing Indianapolis Center
Tue 06:42:00 AM 39.3181 -84.9236 239° Southwest 363 418 32,700 787 Climbing Indianapolis Center
Tue 06:43:01 AM 39.2647 -85.0364 239° Southwest 364 419 33,500 744 Climbing Indianapolis Center
Tue 06:44:01 AM 39.2122 -85.1489 239° Southwest 364 419 34,200 744 Climbing Indianapolis Center
Tue 06:45:02 AM 39.1600 -85.2561 238° Southwest 362 417 35,000 836 Climbing Indianapolis Center
Tue 06:46:03 AM 39.1078 -85.3678 239° Southwest 363 418 35,900 492 Climbing Indianapolis Center
Tue 06:47:04 AM 39.0561 -85.4772 239° Southwest 358 412 36,000 50 Climbing Indianapolis Center
Tue 06:48:04 AM 39.0022 -85.5914 239° Southwest 368 423 36,000  Level Indianapolis Center
Tue 06:49:05 AM 38.9453 -85.7075 238° Southwest 382 440 36,000  Level Indianapolis Center
Tue 06:50:06 AM 38.8892 -85.8264 239° Southwest 388 447 36,000  Level Indianapolis Center
Tue 06:51:07 AM 38.8317 -85.9444 238° Southwest 391 450 36,000  Level Indianapolis Center
Tue 06:52:07 AM 38.7753 -86.0611 238° Southwest 385 443 36,000  Level Indianapolis Center
Tue 06:53:08 AM 38.7194 -86.1750 238° Southwest 378 435 36,000  Level Indianapolis Center
Tue 06:54:09 AM 38.6644 -86.2886 238° Southwest 375 432 36,000  Level Indianapolis Center
Tue 06:55:10 AM 38.6089 -86.4025 238° Southwest 376 433 36,000  Level Indianapolis Center
Tue 06:56:11 AM 38.5533 -86.5156 238° Southwest 374 430 36,000  Level Indianapolis Center
Tue 06:57:12 AM 38.4975 -86.6286 238° Southwest 375 432 36,000  Level Indianapolis Center
Tue 06:58:13 AM 38.4350 -86.7361 233° Southwest 377 434 36,000  Level Indianapolis Center
Tue 06:59:13 AM 38.3606 -86.8331 226° Southwest 380 437 36,000  Level Indianapolis Center
Tue 07:00:14 AM 38.2822 -86.9347 226° Southwest 378 435 36,000  Level Indianapolis Center
Tue 07:01:15 AM 38.2083 -87.0328 226° Southwest 380 437 36,000  Level Indianapolis Center
Tue 07:02:16 AM 38.1319 -87.1306 225° Southwest 384 442 36,000  Level Indianapolis Center
Tue 07:03:17 AM 38.0586 -87.2272 226° Southwest 379 436 36,000  Level Indianapolis Center
Tue 07:04:18 AM 37.9842 -87.3231 225° Southwest 378 435 36,000  Level Indianapolis Center
Tue 07:05:19 AM 37.9097 -87.4189 225° Southwest 379 436 36,000  Level Indianapolis Center
Tue 07:06:20 AM 37.8353 -87.5133 225° Southwest 378 435 36,000  Level Indianapolis Center
Tue 07:07:21 AM 37.7611 -87.6075 225° Southwest 376 433 36,000  Level Indianapolis Center
Tue 07:08:22 AM 37.6744 -87.7189 226° Southwest 378 435 36,000  Level Indianapolis Center
Tue 07:09:17 AM 37.6119 -87.8100 229° Southwest 381 438 36,000  Level Memphis Center
Tue 07:10:17 AM 37.5389 -87.9011 225° Southwest 381 438 36,000  Level Memphis Center
Tue 07:11:17 AM 37.4636 -87.9950 225° Southwest 381 438 36,000  Level Memphis Center
Tue 07:12:17 AM 37.3861 -88.0833 222° Southwest 381 438 36,000  Level Memphis Center
Tue 07:13:17 AM 37.3106 -88.1742 224° Southwest 381 438 36,000  Level Memphis Center
Tue 07:14:17 AM 37.2331 -88.2650 223° Southwest 386 444 36,000  Level Memphis Center
Tue 07:15:17 AM 37.1553 -88.3528 222° Southwest 386 444 36,000  Level Memphis Center
Tue 07:16:17 AM 37.0775 -88.4433 223° Southwest 386 444 36,000  Level Memphis Center
Tue 07:17:17 AM 36.9997 -88.5333 223° Southwest 386 444 36,000  Level Memphis Center
Tue 07:18:17 AM 36.9217 -88.6208 222° Southwest 386 444 36,000  Level Memphis Center
Tue 07:19:17 AM 36.8439 -88.7133 224° Southwest 386 444 36,000  Level Memphis Center
Tue 07:20:17 AM 36.7617 -88.8031 221° Southwest 386 444 36,000  Level Memphis Center
Tue 07:21:17 AM 36.6836 -88.8925 223° Southwest 386 444 36,000  Level Memphis Center
Tue 07:22:17 AM 36.6053 -88.9817 222° Southwest 386 444 36,000  Level Memphis Center
Tue 07:23:17 AM 36.5272 -89.0683 222° Southwest 386 444 36,000  Level Memphis Center
Tue 07:24:17 AM 36.4467 -89.1547 221° Southwest 386 444 36,000  Level Memphis Center
Tue 07:25:17 AM 36.3744 -89.2436 225° Southwest 386 444 36,000  Level Memphis Center
Tue 07:26:17 AM 36.2817 -89.3425 221° Southwest 408 470 36,000  Level Memphis Center
Tue 07:27:17 AM 36.2072 -89.4283 223° Southwest 413 475 36,000  Level Memphis Center
Tue 07:28:17 AM 36.1306 -89.5142 222° Southwest 400 460 36,000  Level Memphis Center
Tue 07:29:17 AM 36.0519 -89.6047 223° Southwest 395 455 36,000  Level Memphis Center
Tue 07:30:17 AM 35.9733 -89.6928 222° Southwest 395 455 36,000  Level Memphis Center
Tue 07:31:17 AM 35.8925 -89.7806 221° Southwest 390 449 36,000  Level Memphis Center
Tue 07:32:17 AM 35.8136 -89.8681 222° Southwest 390 449 36,000  Level Memphis Center
Tue 07:33:17 AM 35.7325 -89.9556 221° Southwest 390 449 36,000  Level Memphis Center
Tue 07:34:17 AM 35.6536 -90.0506 224° Southwest 382 440 36,000  Level Memphis Center
Tue 07:35:17 AM 35.5725 -90.1400 222° Southwest 375 432 36,000  Level Memphis Center
Tue 07:36:17 AM 35.4933 -90.2294 223° Southwest 385 443 36,000  Level Memphis Center
Tue 07:37:17 AM 35.4142 -90.3164 222° Southwest 385 443 36,000  Level Memphis Center
Tue 07:38:17 AM 35.3328 -90.4056 222° Southwest 390 449 36,000  Level Memphis Center
Tue 07:39:17 AM 35.2617 -90.4842 222° Southwest 390 449 36,000  Level Memphis Center
Tue 07:40:17 AM 35.1783 -90.5731 221° Southwest 385 443 36,000  Level Memphis Center
Tue 07:41:17 AM 35.0967 -90.6592 221° Southwest 390 449 36,000  Level Memphis Center
Tue 07:42:17 AM 35.0172 -90.7450 222° Southwest 384 442 36,000  Level Memphis Center
Tue 07:43:17 AM 34.9356 -90.8333 222° Southwest 389 448 36,000  Level Memphis Center
Tue 07:44:17 AM 34.8539 -90.9214 222° Southwest 389 448 36,000  Level Memphis Center
Tue 07:45:17 AM 34.7719 -91.0069 221° Southwest 389 448 36,000  Level Memphis Center
Tue 07:46:17 AM 34.6903 -91.0947 221° Southwest 389 448 36,000  Level Memphis Center
Tue 07:47:17 AM 34.6103 -91.1847 223° Southwest 389 448 36,000  Level Memphis Center
Tue 07:48:17 AM 34.5200 -91.2772 220° Southwest 389 448 36,000  Level Memphis Center
Tue 07:49:17 AM 34.4378 -91.3644 221° Southwest 389 448 36,000  Level Memphis Center
Tue 07:50:17 AM 34.3578 -91.4492 221° Southwest 384 442 36,000  Level Memphis Center
Tue 07:51:17 AM 34.2800 -91.5311 221° Southwest 389 448 36,000  Level Memphis Center
Tue 07:52:17 AM 34.1978 -91.6153 220° Southwest 384 442 36,000  Level Memphis Center
Tue 07:53:17 AM 34.1175 -91.6994 221° Southwest 389 448 36,000  Level Memphis Center
Tue 07:54:17 AM 34.0436 -91.7861 224° Southwest 381 438 36,000  Level Memphis Center
Tue 07:55:17 AM 33.9611 -91.8672 219° Southwest 381 438 36,000  Level Memphis Center
Tue 07:57:03 AM 33.8192 -92.0111 220° Southwest 362 417 36,000  Level Fort Worth Center
Tue 07:58:03 AM 33.7353 -92.0961 220° Southwest 379 436 36,000  Level Fort Worth Center
Tue 07:59:03 AM 33.6508 -92.1736 217° Southwest 389 448 36,000  Level Fort Worth Center
Tue 08:00:03 AM 33.5417 -92.2050 193° South 389 448 36,000  Level Fort Worth Center
Tue 08:01:03 AM 33.4344 -92.2389 195° South 395 455 36,000  Level Fort Worth Center
Tue 08:02:03 AM 33.3272 -92.2700 194° South 400 460 36,000  Level Fort Worth Center
Tue 08:03:03 AM 33.2181 -92.3036 194° South 400 460 36,000  Level Fort Worth Center
Tue 08:04:03 AM 33.1086 -92.3347 193° South 410 472 36,000  Level Fort Worth Center
Tue 08:05:03 AM 32.9972 -92.3683 194° South 410 472 36,000  Level Fort Worth Center
Tue 08:07:06 AM 32.7881 -92.4350 195° South 402 463 36,000  Level Houston Center
Tue 08:08:07 AM 32.6783 -92.4661 193° South 404 465 36,000  Level Houston Center
Tue 08:09:08 AM 32.5697 -92.5000 195° South 405 466 36,000  Level Houston Center
Tue 08:10:10 AM 32.4389 -92.5386 194° South 404 465 36,000  Level Houston Center
Tue 08:11:11 AM 32.3306 -92.5711 194° South 404 465 36,000  Level Houston Center
Tue 08:12:13 AM 32.2214 -92.6031 194° South 403 464 36,000  Level Houston Center
Tue 08:13:14 AM 32.1122 -92.6361 194° South 405 466 36,000 -341 Level Houston Center
Tue 08:14:16 AM 32.0042 -92.6669 194° South 403 464 35,300 -488 Descending Houston Center
Tue 08:15:17 AM 31.9142 -92.7339 212° Southwest 383 441 35,000 -148 Descending Houston Center
Tue 08:16:18 AM 31.8353 -92.8108 220° Southwest 372 428 35,000  Level Houston Center
Tue 08:17:20 AM 31.7550 -92.8903 220° Southwest 376 433 35,000  Level Houston Center
Tue 08:18:21 AM 31.6608 -92.9806 219° Southwest 364 419 35,000  Level Houston Center
Tue 08:19:23 AM 31.5839 -93.0547 219° Southwest 360 414 35,000  Level Houston Center
Tue 08:20:24 AM 31.5039 -93.1314 219° Southwest 369 425 35,000  Level Houston Center
Tue 08:21:26 AM 31.4239 -93.2078 219° Southwest 371 427 35,000 -49 Level Houston Center
Tue 08:22:27 AM 31.3444 -93.2842 219° Southwest 371 427 34,900 -732 Descending Houston Center
Tue 08:23:29 AM 31.2656 -93.3575 218° Southwest 365 420 33,500 -1,415 Descending Houston Center
Tue 08:24:30 AM 31.1911 -93.4281 219° Southwest 351 404 32,000 -1,610 Descending Houston Center
Tue 08:25:32 AM 31.0992 -93.5158 219° Southwest 356 410 30,200 -1,707 Descending Houston Center
Tue 08:26:33 AM 31.0183 -93.5928 219° Southwest 359 413 28,500 -1,659 Descending Houston Center
Tue 08:27:35 AM 30.9372 -93.6683 219° Southwest 369 425 26,800 -1,366 Descending Houston Center
Tue 08:28:36 AM 30.8556 -93.7450 219° Southwest 375 432 25,700 -976 Descending Houston Center
Tue 08:29:38 AM 30.7761 -93.8211 219° Southwest 370 426 24,800 -823 Descending Houston Center
Tue 08:30:40 AM 30.6981 -93.8950 219° Southwest 362 417 24,000 -829 Descending Houston Center
Tue 08:31:41 AM 30.6208 -93.9669 219° Southwest 357 411 23,100 -911 Descending Houston Center
Tue 08:31:59 AM 30.5922 -93.9944 220° Southwest 351 404 22,800 -1,355 Descending Houston Center
Tue 08:32:43 AM 30.5447 -94.0386 219° Southwest 352 405 21,700 -1,826 Descending Houston Center
Tue 08:33:08 AM 30.5056 -94.0742 218° Southwest 348 400 20,700 -2,032 Descending Houston Center
Tue 08:33:45 AM 30.4692 -94.1083 219° Southwest 348 400 19,600 -2,727 Descending Houston Center
Tue 08:34:14 AM 30.4303 -94.1617 230° Southwest 347 399 17,700 -2,656 Descending Houston Center
Tue 08:34:46 AM 30.4136 -94.1972 241° Southwest 344 396 16,900 -2,323 Descending Houston Center
Tue 08:35:16 AM 30.3858 -94.2647 245° Southwest 343 395 15,300 -2,516 Descending Houston Center
Tue 08:35:48 AM 30.3617 -94.3167 242° Southwest 346 398 14,300 -1,964 Descending Houston Center
Tue 08:36:11 AM 30.3481 -94.3497 244° Southwest 332 382 13,500 -2,164 Descending Houston Center
Tue 08:36:49 AM 30.3206 -94.4100 242° Southwest 331 381 12,100 -2,164 Descending Houston Center
Tue 08:37:12 AM 30.3033 -94.4500 244° Southwest 323 372 11,300 -1,839 Descending Houston Center
Tue 08:37:51 AM 30.2825 -94.4986 244° Southwest 321 369 10,200 -1,258 Descending Houston Center
Tue 08:38:14 AM 30.2636 -94.5375 241° Southwest 302 348 10,000 -197 Descending Houston Center
Tue 08:38:52 AM 30.2450 -94.5844 245° Southwest 304 350 10,000  Level Houston Center
Tue 08:39:21 AM 30.2225 -94.6347 243° Southwest 310 357 10,000  Level Houston Center
Tue 08:39:54 AM 30.2061 -94.6736 244° Southwest 307 353 10,000  Level Houston Center
Tue 08:40:28 AM 30.1778 -94.7372 243° Southwest 311 358 10,000  Level Houston Center
Tue 08:40:55 AM 30.1667 -94.7619 243° Southwest 311 358 10,000  Level Houston Center
Tue 08:41:24 AM 30.1433 -94.8164 244° Southwest 312 359 10,000  Level Houston Center
Tue 08:41:57 AM 30.1278 -94.8508 242° Southwest 311 358 10,000  Level Houston Center
Tue 08:42:25 AM 30.1061 -94.9106 247° West 312 359 10,000  Level Houston Center
Tue 08:42:59 AM 30.1072 -94.9664 271° West 319 367 10,000 -197 Level Houston Center
Tue 08:43:26 AM 30.1053 -95.0122 267° West 291 335 9,800 -677 Descending Houston Center
Tue 08:44:01 AM 30.1061 -95.0564 271° West 287 330 9,300 -964 Descending Houston Center
Tue 08:44:22 AM 30.1064 -95.0917 271° West 276 318 8,900 -984 Descending Houston Center
Tue 08:45:02 AM 30.1069 -95.1447 271° West 279 321 8,300 -984 Descending Houston Center
Tue 08:45:23 AM 30.1064 -95.1811 269° West 278 320 7,900 -968 Descending Houston Center
Tue 08:46:04 AM 30.1075 -95.2311 271° West 273 314 7,300 -878 Descending Houston Center
Tue 08:48:00 AM 29.9833 -95.3333 203° Southwest  Level FlightAware Approximate
Tue 08:55:00 AM 29.9844 -95.3414 203° Southwest  Level Estimated
Tue 08:56:00 AM 29.9833 -95.3333 203° Southwest  Level FlightAware Approximate
Tue 08:57:00 AM 29.9844 -95.3414 203° Southwest  Level Estimated
Tue 08:58:00 AM 29.9833 -95.3333 203° Southwest  Level FlightAware Approximate
Tue 08:59:00 AM 29.9844 -95.3414 203° Southwest  Level Estimated
Tue 09:00:00 AM 29.9833 -95.3333 203° Southwest  Level FlightAware Approximate
Tue 09:01:00 AM 29.9844 -95.3414 203° Southwest  Level Estimated
Tue 09:02:00 AM 29.9833 -95.3333 203° Southwest  Level FlightAware Approximate
Tue 09:03:00 AM 29.9844 -95.3414 203° Southwest  Level Estimated

Login

Don't have an account? Register now (free) for customized features, flight alerts, and more!